sensor_id;sensor_type;location;lat;lon;timestamp;P1;durP1;ratioP1;P2;durP2;ratioP2
11398;SDS011;5755;48.116;11.608;2024-03-02T07:28:44;15.95;;;13.85;;
11398;SDS011;5755;48.116;11.608;2024-03-02T07:31:11;14.55;;;12.32;;
11398;SDS011;5755;48.116;11.608;2024-03-02T07:33:43;14.68;;;12.40;;
11398;SDS011;5755;48.116;11.608;2024-03-02T07:36:48;18.15;;;15.02;;
11398;SDS011;5755;48.116;11.608;2024-03-02T07:43:26;16.50;;;14.13;;
11398;SDS011;5755;48.116;11.608;2024-03-02T08:06:08;16.38;;;13.80;;
11398;SDS011;5755;48.116;11.608;2024-03-02T08:08:53;14.85;;;12.73;;
11398;SDS011;5755;48.116;11.608;2024-03-02T08:14:33;17.80;;;13.75;;
11398;SDS011;5755;48.116;11.608;2024-03-02T08:17:19;16.10;;;12.55;;
11398;SDS011;5755;48.116;11.608;2024-03-02T08:20:12;16.65;;;12.23;;
11398;SDS011;5755;48.116;11.608;2024-03-02T08:26:02;14.43;;;12.05;;
11398;SDS011;5755;48.116;11.608;2024-03-02T08:28:39;15.23;;;11.70;;
11398;SDS011;5755;48.116;11.608;2024-03-02T08:34:42;15.43;;;11.32;;
11398;SDS011;5755;48.116;11.608;2024-03-02T08:51:43;42.05;;;33.40;;
11398;SDS011;5755;48.116;11.608;2024-03-02T08:54:19;13.57;;;11.27;;
11398;SDS011;5755;48.116;11.608;2024-03-02T09:09:41;11.10;;;8.93;;
11398;SDS011;5755;48.116;11.608;2024-03-02T09:12:08;12.27;;;9.60;;
11398;SDS011;5755;48.116;11.608;2024-03-02T09:14:36;13.23;;;11.25;;
11398;SDS011;5755;48.116;11.608;2024-03-02T09:17:03;11.15;;;9.55;;
11398;SDS011;5755;48.116;11.608;2024-03-02T09:19:30;10.60;;;9.50;;
11398;SDS011;5755;48.116;11.608;2024-03-02T09:21:57;10.63;;;9.55;;
11398;SDS011;5755;48.116;11.608;2024-03-02T09:24:24;11.05;;;9.75;;
11398;SDS011;5755;48.116;11.608;2024-03-02T09:26:52;9.88;;;8.75;;
11398;SDS011;5755;48.116;11.608;2024-03-02T09:29:19;8.68;;;7.28;;
11398;SDS011;5755;48.116;11.608;2024-03-02T09:31:46;7.88;;;6.93;;
11398;SDS011;5755;48.116;11.608;2024-03-02T09:34:14;8.65;;;7.35;;
11398;SDS011;5755;48.116;11.608;2024-03-02T09:36:41;8.20;;;7.18;;
11398;SDS011;5755;48.116;11.608;2024-03-02T09:39:08;9.18;;;7.28;;
11398;SDS011;5755;48.116;11.608;2024-03-02T09:41:36;9.73;;;8.77;;
11398;SDS011;5755;48.116;11.608;2024-03-02T09:44:04;12.73;;;11.43;;
11398;SDS011;5755;48.116;11.608;2024-03-02T09:46:31;7.07;;;6.38;;
11398;SDS011;5755;48.116;11.608;2024-03-02T09:48:59;6.93;;;6.22;;
11398;SDS011;5755;48.116;11.608;2024-03-02T09:51:26;6.72;;;6.00;;
11398;SDS011;5755;48.116;11.608;2024-03-02T09:53:54;6.82;;;5.82;;
11398;SDS011;5755;48.116;11.608;2024-03-02T09:56:21;6.43;;;5.82;;
11398;SDS011;5755;48.116;11.608;2024-03-02T09:58:48;6.40;;;5.70;;
11398;SDS011;5755;48.116;11.608;2024-03-02T10:01:17;6.72;;;6.00;;
11398;SDS011;5755;48.116;11.608;2024-03-02T10:03:44;6.53;;;5.93;;
11398;SDS011;5755;48.116;11.608;2024-03-02T10:06:18;6.72;;;6.03;;
11398;SDS011;5755;48.116;11.608;2024-03-02T10:08:45;7.00;;;6.30;;
11398;SDS011;5755;48.116;11.608;2024-03-02T10:11:21;7.28;;;6.35;;
11398;SDS011;5755;48.116;11.608;2024-03-02T10:13:57;7.22;;;6.30;;
11398;SDS011;5755;48.116;11.608;2024-03-02T10:16:34;5.85;;;5.35;;
11398;SDS011;5755;48.116;11.608;2024-03-02T10:19:14;6.43;;;5.72;;
11398;SDS011;5755;48.116;11.608;2024-03-02T10:21:43;5.70;;;5.10;;
11398;SDS011;5755;48.116;11.608;2024-03-02T10:24:10;5.78;;;5.28;;
11398;SDS011;5755;48.116;11.608;2024-03-02T10:26:37;8.15;;;7.07;;
11398;SDS011;5755;48.116;11.608;2024-03-02T10:29:16;8.13;;;6.78;;
11398;SDS011;5755;48.116;11.608;2024-03-02T10:38:01;6.75;;;5.60;;
11398;SDS011;5755;48.116;11.608;2024-03-02T10:40:30;7.35;;;6.57;;
11398;SDS011;5755;48.116;11.608;2024-03-02T10:42:58;6.95;;;6.25;;
11398;SDS011;5755;48.116;11.608;2024-03-02T10:45:40;7.65;;;6.55;;
11398;SDS011;5755;48.116;11.608;2024-03-02T10:51:31;10.15;;;8.75;;
11398;SDS011;5755;48.116;11.608;2024-03-02T10:53:59;11.75;;;10.18;;
11398;SDS011;5755;48.116;11.608;2024-03-02T10:56:27;10.57;;;9.48;;
11398;SDS011;5755;48.116;11.608;2024-03-02T10:59:01;10.95;;;8.90;;
11398;SDS011;5755;48.116;11.608;2024-03-02T11:01:29;14.68;;;11.07;;
11398;SDS011;5755;48.116;11.608;2024-03-02T11:03:59;13.60;;;11.60;;
11398;SDS011;5755;48.116;11.608;2024-03-02T11:06:30;13.45;;;11.10;;
11398;SDS011;5755;48.116;11.608;2024-03-02T11:12:23;13.13;;;10.93;;
11398;SDS011;5755;48.116;11.608;2024-03-02T11:14:52;11.70;;;10.35;;
11398;SDS011;5755;48.116;11.608;2024-03-02T11:17:21;13.68;;;11.25;;
11398;SDS011;5755;48.116;11.608;2024-03-02T11:19:49;13.77;;;10.52;;
11398;SDS011;5755;48.116;11.608;2024-03-02T11:22:18;12.30;;;10.43;;
11398;SDS011;5755;48.116;11.608;2024-03-02T11:24:49;15.63;;;10.23;;
11398;SDS011;5755;48.116;11.608;2024-03-02T11:48:54;12.27;;;8.73;;
11398;SDS011;5755;48.116;11.608;2024-03-02T11:51:21;11.68;;;7.93;;
11398;SDS011;5755;48.116;11.608;2024-03-02T11:54:04;10.48;;;7.95;;
11398;SDS011;5755;48.116;11.608;2024-03-02T12:10:17;13.55;;;9.82;;
11398;SDS011;5755;48.116;11.608;2024-03-02T12:16:07;13.25;;;10.15;;
11398;SDS011;5755;48.116;11.608;2024-03-02T12:18:34;12.10;;;9.32;;
11398;SDS011;5755;48.116;11.608;2024-03-02T12:21:01;13.40;;;10.20;;
11398;SDS011;5755;48.116;11.608;2024-03-02T12:29:39;12.52;;;9.13;;
11398;SDS011;5755;48.116;11.608;2024-03-02T12:32:07;15.77;;;10.48;;
11398;SDS011;5755;48.116;11.608;2024-03-02T12:34:41;12.18;;;9.98;;
11398;SDS011;5755;48.116;11.608;2024-03-02T12:41:14;12.20;;;9.82;;
11398;SDS011;5755;48.116;11.608;2024-03-02T13:37:29;12.95;;;9.48;;
11398;SDS011;5755;48.116;11.608;2024-03-02T13:40:06;14.57;;;11.90;;
11398;SDS011;5755;48.116;11.608;2024-03-02T13:49:49;17.35;;;12.63;;
11398;SDS011;5755;48.116;11.608;2024-03-02T17:46:36;23.85;;;16.10;;
11398;SDS011;5755;48.116;11.608;2024-03-02T17:55:25;22.83;;;15.57;;
11398;SDS011;5755;48.116;11.608;2024-03-02T18:15:53;29.08;;;17.55;;
11398;SDS011;5755;48.116;11.608;2024-03-02T18:27:58;27.40;;;17.50;;
11398;SDS011;5755;48.116;11.608;2024-03-02T18:30:25;25.08;;;17.30;;
11398;SDS011;5755;48.116;11.608;2024-03-02T18:32:54;31.83;;;19.58;;
11398;SDS011;5755;48.116;11.608;2024-03-02T18:35:21;30.25;;;18.45;;
11398;SDS011;5755;48.116;11.608;2024-03-02T18:37:48;27.75;;;18.85;;
11398;SDS011;5755;48.116;11.608;2024-03-02T18:40:15;29.35;;;19.23;;
11398;SDS011;5755;48.116;11.608;2024-03-02T18:42:42;29.65;;;19.25;;
11398;SDS011;5755;48.116;11.608;2024-03-02T18:45:09;28.85;;;18.80;;
11398;SDS011;5755;48.116;11.608;2024-03-02T18:47:36;27.38;;;18.58;;
11398;SDS011;5755;48.116;11.608;2024-03-02T18:50:06;31.42;;;19.30;;
11398;SDS011;5755;48.116;11.608;2024-03-02T18:52:34;27.02;;;19.15;;
11398;SDS011;5755;48.116;11.608;2024-03-02T18:55:02;29.83;;;20.17;;
11398;SDS011;5755;48.116;11.608;2024-03-02T18:57:29;34.38;;;20.65;;
11398;SDS011;5755;48.116;11.608;2024-03-02T18:59:56;34.55;;;20.88;;
11398;SDS011;5755;48.116;11.608;2024-03-02T19:02:23;32.40;;;19.70;;
11398;SDS011;5755;48.116;11.608;2024-03-02T19:04:50;34.20;;;20.58;;
11398;SDS011;5755;48.116;11.608;2024-03-02T19:07:18;32.88;;;20.52;;
11398;SDS011;5755;48.116;11.608;2024-03-02T19:09:46;36.53;;;21.08;;
11398;SDS011;5755;48.116;11.608;2024-03-02T19:12:12;31.17;;;21.35;;
11398;SDS011;5755;48.116;11.608;2024-03-02T19:14:39;32.70;;;21.33;;
11398;SDS011;5755;48.116;11.608;2024-03-02T19:17:06;39.70;;;23.23;;
11398;SDS011;5755;48.116;11.608;2024-03-02T19:19:33;36.38;;;22.48;;
11398;SDS011;5755;48.116;11.608;2024-03-02T19:22:00;34.78;;;22.13;;
11398;SDS011;5755;48.116;11.608;2024-03-02T19:24:31;35.42;;;22.15;;
11398;SDS011;5755;48.116;11.608;2024-03-02T19:27:01;36.60;;;22.67;;
11398;SDS011;5755;48.116;11.608;2024-03-02T19:29:28;37.00;;;23.20;;
11398;SDS011;5755;48.116;11.608;2024-03-02T19:31:55;33.58;;;23.52;;
11398;SDS011;5755;48.116;11.608;2024-03-02T19:34:23;43.25;;;24.75;;
11398;SDS011;5755;48.116;11.608;2024-03-02T19:36:50;36.08;;;23.48;;
11398;SDS011;5755;48.116;11.608;2024-03-02T19:39:17;40.50;;;25.20;;
11398;SDS011;5755;48.116;11.608;2024-03-02T19:41:52;37.60;;;24.30;;
11398;SDS011;5755;48.116;11.608;2024-03-02T19:44:19;46.65;;;26.77;;
11398;SDS011;5755;48.116;11.608;2024-03-02T19:46:48;41.78;;;26.90;;
11398;SDS011;5755;48.116;11.608;2024-03-02T19:49:15;48.60;;;26.63;;
11398;SDS011;5755;48.116;11.608;2024-03-02T19:51:43;41.70;;;24.98;;
11398;SDS011;5755;48.116;11.608;2024-03-02T19:54:10;41.85;;;25.52;;
11398;SDS011;5755;48.116;11.608;2024-03-02T19:56:37;37.90;;;25.38;;
11398;SDS011;5755;48.116;11.608;2024-03-02T19:59:05;42.78;;;26.90;;
11398;SDS011;5755;48.116;11.608;2024-03-02T20:01:35;46.10;;;27.40;;
11398;SDS011;5755;48.116;11.608;2024-03-02T20:04:02;42.97;;;27.17;;
11398;SDS011;5755;48.116;11.608;2024-03-02T20:06:34;42.90;;;27.40;;
11398;SDS011;5755;48.116;11.608;2024-03-02T20:09:01;41.17;;;26.85;;
11398;SDS011;5755;48.116;11.608;2024-03-02T20:11:30;46.45;;;27.73;;
11398;SDS011;5755;48.116;11.608;2024-03-02T20:13:58;44.03;;;27.73;;
11398;SDS011;5755;48.116;11.608;2024-03-02T20:16:26;41.97;;;27.25;;
11398;SDS011;5755;48.116;11.608;2024-03-02T20:18:53;42.05;;;26.83;;
11398;SDS011;5755;48.116;11.608;2024-03-02T20:21:20;42.47;;;27.27;;
11398;SDS011;5755;48.116;11.608;2024-03-02T20:23:47;44.10;;;27.80;;
11398;SDS011;5755;48.116;11.608;2024-03-02T20:26:14;45.35;;;27.83;;
11398;SDS011;5755;48.116;11.608;2024-03-02T20:28:42;41.85;;;27.33;;
11398;SDS011;5755;48.116;11.608;2024-03-02T20:31:10;43.50;;;27.80;;
11398;SDS011;5755;48.116;11.608;2024-03-02T20:33:40;46.78;;;29.05;;
11398;SDS011;5755;48.116;11.608;2024-03-02T20:36:11;45.85;;;27.88;;
11398;SDS011;5755;48.116;11.608;2024-03-02T20:38:38;43.05;;;26.90;;
11398;SDS011;5755;48.116;11.608;2024-03-02T20:41:05;50.33;;;28.83;;
11398;SDS011;5755;48.116;11.608;2024-03-02T20:43:39;48.58;;;29.17;;
11398;SDS011;5755;48.116;11.608;2024-03-02T20:46:06;41.83;;;28.02;;
11398;SDS011;5755;48.116;11.608;2024-03-02T20:48:33;45.08;;;28.33;;
11398;SDS011;5755;48.116;11.608;2024-03-02T20:51:02;48.10;;;29.35;;
11398;SDS011;5755;48.116;11.608;2024-03-02T20:53:29;51.55;;;29.73;;
11398;SDS011;5755;48.116;11.608;2024-03-02T20:55:56;46.85;;;29.67;;
11398;SDS011;5755;48.116;11.608;2024-03-02T20:58:23;47.10;;;29.73;;
11398;SDS011;5755;48.116;11.608;2024-03-02T21:00:50;48.42;;;29.80;;
11398;SDS011;5755;48.116;11.608;2024-03-02T21:03:16;44.90;;;28.52;;
11398;SDS011;5755;48.116;11.608;2024-03-02T21:05:44;45.38;;;28.80;;
11398;SDS011;5755;48.116;11.608;2024-03-02T21:08:13;43.20;;;27.73;;
11398;SDS011;5755;48.116;11.608;2024-03-02T21:10:40;43.85;;;26.48;;
11398;SDS011;5755;48.116;11.608;2024-03-02T21:13:09;44.80;;;28.30;;
11398;SDS011;5755;48.116;11.608;2024-03-02T21:15:36;47.30;;;28.33;;
11398;SDS011;5755;48.116;11.608;2024-03-02T21:18:03;43.45;;;28.25;;
11398;SDS011;5755;48.116;11.608;2024-03-02T21:20:30;47.47;;;29.52;;
11398;SDS011;5755;48.116;11.608;2024-03-02T21:22:57;48.42;;;29.33;;
11398;SDS011;5755;48.116;11.608;2024-03-02T21:25:25;48.70;;;29.33;;
11398;SDS011;5755;48.116;11.608;2024-03-02T21:27:52;50.45;;;29.67;;
11398;SDS011;5755;48.116;11.608;2024-03-02T21:30:19;45.83;;;28.95;;
11398;SDS011;5755;48.116;11.608;2024-03-02T21:32:46;45.60;;;28.52;;
11398;SDS011;5755;48.116;11.608;2024-03-02T21:35:14;46.92;;;28.33;;
11398;SDS011;5755;48.116;11.608;2024-03-02T21:37:41;44.65;;;28.25;;
11398;SDS011;5755;48.116;11.608;2024-03-02T21:40:09;46.13;;;28.98;;
11398;SDS011;5755;48.116;11.608;2024-03-02T21:42:38;45.42;;;27.75;;
11398;SDS011;5755;48.116;11.608;2024-03-02T21:45:05;44.28;;;28.10;;
11398;SDS011;5755;48.116;11.608;2024-03-02T21:47:33;45.55;;;29.02;;
11398;SDS011;5755;48.116;11.608;2024-03-02T21:50:00;47.08;;;29.48;;
11398;SDS011;5755;48.116;11.608;2024-03-02T21:52:27;42.72;;;26.90;;
11398;SDS011;5755;48.116;11.608;2024-03-02T21:54:54;46.13;;;27.95;;
11398;SDS011;5755;48.116;11.608;2024-03-02T21:57:21;46.95;;;28.13;;
11398;SDS011;5755;48.116;11.608;2024-03-02T21:59:51;46.53;;;28.88;;
11398;SDS011;5755;48.116;11.608;2024-03-02T22:02:18;47.35;;;28.65;;
11398;SDS011;5755;48.116;11.608;2024-03-02T22:04:45;48.83;;;28.58;;
11398;SDS011;5755;48.116;11.608;2024-03-02T22:07:12;45.80;;;28.63;;
11398;SDS011;5755;48.116;11.608;2024-03-02T22:09:39;46.35;;;28.00;;
11398;SDS011;5755;48.116;11.608;2024-03-02T22:12:06;45.35;;;27.75;;
11398;SDS011;5755;48.116;11.608;2024-03-02T22:14:32;45.78;;;27.88;;
11398;SDS011;5755;48.116;11.608;2024-03-02T22:17:01;48.50;;;28.88;;
11398;SDS011;5755;48.116;11.608;2024-03-02T22:19:27;52.30;;;28.63;;
11398;SDS011;5755;48.116;11.608;2024-03-02T22:21:54;46.70;;;28.98;;
11398;SDS011;5755;48.116;11.608;2024-03-02T22:24:24;49.20;;;28.17;;
11398;SDS011;5755;48.116;11.608;2024-03-02T22:26:53;50.90;;;28.90;;
11398;SDS011;5755;48.116;11.608;2024-03-02T22:29:36;52.97;;;28.52;;
11398;SDS011;5755;48.116;11.608;2024-03-02T22:32:24;47.72;;;28.58;;
11398;SDS011;5755;48.116;11.608;2024-03-02T22:34:51;49.67;;;29.25;;
11398;SDS011;5755;48.116;11.608;2024-03-02T22:37:18;47.55;;;28.35;;
11398;SDS011;5755;48.116;11.608;2024-03-02T22:39:45;48.95;;;29.85;;
11398;SDS011;5755;48.116;11.608;2024-03-02T22:42:12;46.97;;;29.48;;
11398;SDS011;5755;48.116;11.608;2024-03-02T22:44:39;52.03;;;28.33;;
11398;SDS011;5755;48.116;11.608;2024-03-02T22:47:06;48.15;;;29.08;;
11398;SDS011;5755;48.116;11.608;2024-03-02T22:49:34;43.78;;;27.23;;
11398;SDS011;5755;48.116;11.608;2024-03-02T22:52:01;44.97;;;27.23;;
11398;SDS011;5755;48.116;11.608;2024-03-02T22:54:27;50.70;;;28.13;;
11398;SDS011;5755;48.116;11.608;2024-03-02T22:56:54;48.65;;;26.67;;
11398;SDS011;5755;48.116;11.608;2024-03-02T22:59:22;49.35;;;28.00;;
11398;SDS011;5755;48.116;11.608;2024-03-02T23:01:49;53.83;;;28.13;;
11398;SDS011;5755;48.116;11.608;2024-03-02T23:04:15;49.90;;;27.75;;
11398;SDS011;5755;48.116;11.608;2024-03-02T23:06:44;51.50;;;27.52;;
11398;SDS011;5755;48.116;11.608;2024-03-02T23:09:11;48.72;;;28.77;;
11398;SDS011;5755;48.116;11.608;2024-03-02T23:11:38;50.55;;;28.27;;
11398;SDS011;5755;48.116;11.608;2024-03-02T23:14:05;49.33;;;27.40;;
11398;SDS011;5755;48.116;11.608;2024-03-02T23:16:33;49.53;;;27.85;;
11398;SDS011;5755;48.116;11.608;2024-03-02T23:19:02;48.00;;;27.98;;
11398;SDS011;5755;48.116;11.608;2024-03-02T23:21:29;45.95;;;26.88;;
11398;SDS011;5755;48.116;11.608;2024-03-02T23:23:57;45.90;;;27.02;;
11398;SDS011;5755;48.116;11.608;2024-03-02T23:26:24;47.22;;;27.27;;
11398;SDS011;5755;48.116;11.608;2024-03-02T23:28:51;48.38;;;28.08;;
11398;SDS011;5755;48.116;11.608;2024-03-02T23:31:18;50.38;;;28.67;;
11398;SDS011;5755;48.116;11.608;2024-03-02T23:33:45;46.83;;;26.67;;
11398;SDS011;5755;48.116;11.608;2024-03-02T23:36:13;43.15;;;26.08;;
11398;SDS011;5755;48.116;11.608;2024-03-02T23:38:40;51.88;;;27.67;;
11398;SDS011;5755;48.116;11.608;2024-03-02T23:41:08;46.58;;;26.52;;
11398;SDS011;5755;48.116;11.608;2024-03-02T23:43:35;41.92;;;24.70;;
11398;SDS011;5755;48.116;11.608;2024-03-02T23:46:02;44.37;;;26.23;;
11398;SDS011;5755;48.116;11.608;2024-03-02T23:48:31;46.08;;;26.25;;
11398;SDS011;5755;48.116;11.608;2024-03-02T23:50:58;44.97;;;27.38;;
11398;SDS011;5755;48.116;11.608;2024-03-02T23:53:25;43.83;;;25.95;;
11398;SDS011;5755;48.116;11.608;2024-03-02T23:55:52;46.57;;;27.23;;
11398;SDS011;5755;48.116;11.608;2024-03-02T23:58:20;46.83;;;26.63;;
